createdAt,value
2022-11-30T00:02:11.094Z,7.10
2022-11-30T00:04:39.051Z,7.10
2022-11-30T00:07:07.001Z,7.10
2022-11-30T00:09:34.913Z,7.10
2022-11-30T00:12:04.320Z,7.10
2022-11-30T00:14:32.295Z,7.10
2022-11-30T00:17:00.462Z,7.10
2022-11-30T00:19:28.636Z,7.10
2022-11-30T00:21:56.538Z,7.00
2022-11-30T00:24:24.442Z,7.00
2022-11-30T00:26:52.357Z,7.00
2022-11-30T00:29:21.644Z,7.00
2022-11-30T00:31:49.579Z,7.00
2022-11-30T00:34:17.510Z,7.00
2022-11-30T00:36:45.545Z,7.10
2022-11-30T00:39:13.476Z,7.10
2022-11-30T00:41:41.697Z,7.10
2022-11-30T00:44:09.649Z,7.00
2022-11-30T00:46:38.936Z,7.10
2022-11-30T00:49:06.800Z,7.00
2022-11-30T00:51:34.733Z,7.00
2022-11-30T00:54:02.770Z,7.00
2022-11-30T00:56:30.663Z,7.00
2022-11-30T00:58:58.572Z,7.00
2022-11-30T01:01:26.579Z,7.00
2022-11-30T01:03:55.889Z,7.00
2022-11-30T01:06:23.838Z,7.00
2022-11-30T01:08:51.970Z,7.00
2022-11-30T01:11:24.830Z,7.00
2022-11-30T01:13:53.370Z,7.00
2022-11-30T01:16:23.166Z,7.00
2022-11-30T01:18:51.466Z,7.00
2022-11-30T01:21:22.049Z,7.00
2022-11-30T01:23:50.770Z,7.00
2022-11-30T01:26:19.472Z,7.00
2022-11-30T01:28:51.423Z,7.00
2022-11-30T01:31:20.792Z,7.00
2022-11-30T01:33:50.736Z,7.10
2022-11-30T01:36:21.590Z,7.00
2022-11-30T01:38:51.624Z,7.00
2022-11-30T01:41:22.811Z,7.00
2022-11-30T01:43:53.389Z,7.00
2022-11-30T01:46:39.711Z,7.10
2022-11-30T01:49:20.852Z,7.10
2022-11-30T01:51:52.787Z,7.10
2022-11-30T01:54:24.149Z,7.10
2022-11-30T01:56:59.059Z,7.10
2022-11-30T01:59:27.798Z,7.10
2022-11-30T02:01:56.721Z,7.10
2022-11-30T02:04:29.192Z,7.10
2022-11-30T02:07:00.104Z,7.20
2022-11-30T02:09:30.065Z,7.10
2022-11-30T02:11:58.337Z,7.10
2022-11-30T02:14:34.567Z,7.10
2022-11-30T02:17:11.177Z,7.10
2022-11-30T02:20:15.094Z,7.10
2022-11-30T02:22:57.618Z,7.10
2022-11-30T02:25:33.221Z,7.10
2022-11-30T02:28:16.910Z,7.10
2022-11-30T02:30:51.130Z,7.10
2022-11-30T02:33:24.537Z,7.10
2022-11-30T02:35:55.597Z,7.10
2022-11-30T02:38:26.007Z,7.10
2022-11-30T02:40:54.025Z,7.20
2022-11-30T02:43:24.380Z,7.10
2022-11-30T02:45:59.689Z,7.10
2022-11-30T02:48:33.075Z,7.20
2022-11-30T02:51:04.392Z,7.10
2022-11-30T02:53:32.377Z,7.20
2022-11-30T02:56:00.632Z,7.10
2022-11-30T02:58:28.801Z,7.10
2022-11-30T03:00:58.116Z,7.10
2022-11-30T03:03:25.998Z,7.10
2022-11-30T03:05:53.966Z,7.10
2022-11-30T03:08:21.923Z,7.10
2022-11-30T03:10:49.828Z,7.10
2022-11-30T03:13:17.803Z,7.10
2022-11-30T03:15:45.710Z,7.10
2022-11-30T03:18:15.140Z,7.10
2022-11-30T03:20:43.587Z,7.10
2022-11-30T03:23:11.557Z,7.10
2022-11-30T03:25:39.527Z,7.10
2022-11-30T03:28:07.427Z,7.10
2022-11-30T03:30:35.434Z,7.10
2022-11-30T03:33:03.377Z,7.10
2022-11-30T03:35:32.663Z,7.10
2022-11-30T03:38:00.587Z,7.10
2022-11-30T03:40:28.551Z,7.10
2022-11-30T03:42:56.414Z,7.10
2022-11-30T03:45:24.399Z,7.10
2022-11-30T03:47:52.274Z,7.10
2022-11-30T03:50:20.171Z,7.10
2022-11-30T03:52:49.797Z,7.10
2022-11-30T03:55:17.847Z,7.00
2022-11-30T03:57:45.798Z,7.10
2022-11-30T04:00:14.732Z,7.10
2022-11-30T04:02:44.802Z,7.10
2022-11-30T04:05:13.530Z,7.10
2022-11-30T04:07:41.828Z,7.10
2022-11-30T04:10:13.117Z,7.10
2022-11-30T04:12:40.984Z,7.10
2022-11-30T04:15:10.183Z,7.10
2022-11-30T04:17:38.091Z,7.10
2022-11-30T04:20:07.521Z,7.10
2022-11-30T04:22:35.744Z,7.10
2022-11-30T04:25:03.833Z,7.10
2022-11-30T04:27:33.399Z,7.10
2022-11-30T04:30:01.294Z,7.10
2022-11-30T04:32:29.495Z,7.10
2022-11-30T04:34:58.101Z,7.10
2022-11-30T04:37:25.974Z,7.10
2022-11-30T04:39:54.078Z,7.10
2022-11-30T04:42:22.083Z,7.20
2022-11-30T04:44:51.314Z,7.10
2022-11-30T04:47:19.271Z,7.10
2022-11-30T04:49:47.197Z,7.10
2022-11-30T04:52:15.092Z,7.10
2022-11-30T04:54:43.079Z,7.10
2022-11-30T04:57:11.100Z,7.10
2022-11-30T04:59:39.060Z,7.10
2022-11-30T05:02:08.376Z,7.10
2022-11-30T05:04:36.628Z,7.10
2022-11-30T05:07:04.730Z,7.20
2022-11-30T05:09:32.618Z,7.20
2022-11-30T05:12:00.489Z,7.20
2022-11-30T05:14:28.407Z,7.20
2022-11-30T05:16:56.343Z,7.10
2022-11-30T05:19:25.732Z,7.10
2022-11-30T05:21:53.695Z,7.10
2022-11-30T05:24:21.632Z,7.10
2022-11-30T05:26:49.592Z,7.10
2022-11-30T05:29:17.509Z,7.10
2022-11-30T05:31:45.535Z,7.10
2022-11-30T05:34:13.432Z,7.10
2022-11-30T05:36:42.697Z,7.20
2022-11-30T05:39:10.763Z,7.20
2022-11-30T05:41:38.691Z,7.20
2022-11-30T05:44:07.399Z,7.10
2022-11-30T05:46:40.664Z,7.20
2022-11-30T05:49:09.054Z,7.20
2022-11-30T05:51:37.056Z,7.20
2022-11-30T05:54:06.516Z,7.20
2022-11-30T05:56:34.802Z,7.20
2022-11-30T05:59:02.712Z,7.20
2022-11-30T06:01:31.187Z,7.20
2022-11-30T06:03:59.083Z,7.20
2022-11-30T06:06:27.057Z,7.20
2022-11-30T06:08:55.625Z,7.20
2022-11-30T06:11:24.903Z,7.20
2022-11-30T06:13:52.798Z,7.20
2022-11-30T06:16:20.753Z,7.20
2022-11-30T06:18:48.682Z,7.20
2022-11-30T06:21:22.610Z,7.20
2022-11-30T06:23:52.145Z,7.20
2022-11-30T06:26:20.399Z,7.20
2022-11-30T06:28:49.867Z,7.20
2022-11-30T06:31:18.334Z,7.20
2022-11-30T06:33:46.261Z,7.20
2022-11-30T06:36:14.268Z,7.20
2022-11-30T06:38:42.460Z,7.20
2022-11-30T06:41:12.434Z,7.20
2022-11-30T06:43:41.615Z,7.20
2022-11-30T06:46:11.300Z,7.20
2022-11-30T06:48:39.650Z,7.20
2022-11-30T06:51:08.915Z,7.20
2022-11-30T06:53:37.118Z,7.20
2022-11-30T06:56:10.023Z,7.20
2022-11-30T06:58:39.512Z,7.20
2022-11-30T07:01:08.571Z,7.20
2022-11-30T07:03:38.580Z,7.20
2022-11-30T07:06:10.263Z,7.20
2022-11-30T07:08:38.388Z,7.20
2022-11-30T07:11:07.317Z,7.20
2022-11-30T07:13:35.372Z,7.20
2022-11-30T07:16:05.153Z,7.20
2022-11-30T07:18:33.133Z,7.20
2022-11-30T07:21:03.329Z,7.20
2022-11-30T07:23:55.519Z,7.20
2022-11-30T07:26:24.934Z,7.30
2022-11-30T07:28:55.442Z,7.30
2022-11-30T07:31:25.385Z,7.30
2022-11-30T07:33:53.929Z,7.20
2022-11-30T07:36:25.570Z,7.30
2022-11-30T07:38:53.548Z,7.30
2022-11-30T07:41:22.013Z,7.30
2022-11-30T07:43:50.392Z,7.30
2022-11-30T07:46:18.942Z,7.30
2022-11-30T07:48:47.705Z,7.30
2022-11-30T07:51:17.350Z,7.40
2022-11-30T07:53:47.516Z,7.40
2022-11-30T07:56:17.377Z,7.30
2022-11-30T07:58:46.127Z,7.30
2022-11-30T08:01:16.276Z,7.30
2022-11-30T08:03:44.603Z,7.30
2022-11-30T08:06:14.300Z,7.30
2022-11-30T08:08:44.382Z,7.30
2022-11-30T08:11:15.757Z,7.40
2022-11-30T08:13:43.805Z,7.40
2022-11-30T08:16:14.666Z,7.40
2022-11-30T08:18:43.082Z,7.40
2022-11-30T08:21:12.896Z,7.40
2022-11-30T08:23:42.807Z,7.40
2022-11-30T08:26:15.440Z,7.50
2022-11-30T08:28:43.989Z,7.50
2022-11-30T08:31:15.233Z,7.50
2022-11-30T08:33:44.104Z,7.50
2022-11-30T08:36:14.021Z,7.50
2022-11-30T08:38:43.210Z,7.50
2022-11-30T08:41:13.362Z,7.50
2022-11-30T08:43:43.235Z,7.60
2022-11-30T08:46:43.042Z,7.60
2022-11-30T08:49:20.977Z,7.60
2022-11-30T08:52:16.428Z,7.70
2022-11-30T08:54:42.372Z,7.70
2022-11-30T08:57:10.514Z,7.70
2022-11-30T08:59:39.861Z,7.80
2022-11-30T09:02:09.481Z,7.80
2022-11-30T09:04:37.426Z,7.90
2022-11-30T09:07:05.358Z,7.90
2022-11-30T09:09:33.641Z,8.00
2022-11-30T09:12:01.523Z,8.10
2022-11-30T09:14:29.714Z,8.00
2022-11-30T09:16:59.045Z,8.00
2022-11-30T09:19:27.363Z,8.00
2022-11-30T09:21:55.259Z,8.00
2022-11-30T09:24:23.353Z,8.00
2022-11-30T09:26:51.424Z,8.00
2022-11-30T09:29:19.313Z,8.00
2022-11-30T09:31:49.001Z,8.00
2022-11-30T09:34:18.434Z,8.00
2022-11-30T09:36:52.254Z,8.00
2022-11-30T09:39:20.184Z,8.00
2022-11-30T09:42:03.325Z,8.00
2022-11-30T09:44:43.586Z,8.10
2022-11-30T09:47:27.757Z,8.00
2022-11-30T09:50:07.164Z,8.00
2022-11-30T09:52:38.203Z,8.00
2022-11-30T09:55:10.266Z,8.00
2022-11-30T09:57:47.038Z,8.00
2022-11-30T10:00:17.760Z,8.00
2022-11-30T10:02:46.784Z,8.00
2022-11-30T10:05:17.908Z,8.10
2022-11-30T10:07:58.415Z,8.10
2022-11-30T10:10:35.547Z,8.10
2022-11-30T10:13:20.432Z,8.10
2022-11-30T10:16:00.056Z,8.10
2022-11-30T10:18:42.187Z,8.10
2022-11-30T10:21:22.191Z,8.20
2022-11-30T10:24:15.465Z,8.20
2022-11-30T10:26:53.952Z,8.20
2022-11-30T10:29:28.216Z,8.20
2022-11-30T10:32:00.489Z,8.30
2022-11-30T10:34:33.560Z,8.20
2022-11-30T10:37:11.087Z,8.20
2022-11-30T10:39:44.239Z,8.30
2022-11-30T10:42:16.951Z,8.30
2022-11-30T10:44:50.067Z,8.30
2022-11-30T10:47:23.725Z,8.30
2022-11-30T10:49:53.727Z,8.40
2022-11-30T10:52:26.917Z,8.40
2022-11-30T10:55:03.620Z,8.40
2022-11-30T10:57:34.142Z,8.50
2022-11-30T11:00:06.587Z,8.60
2022-11-30T11:02:38.109Z,8.50
2022-11-30T11:05:21.702Z,8.50
2022-11-30T11:07:55.009Z,8.60
2022-11-30T11:10:26.567Z,8.60
2022-11-30T11:12:56.056Z,8.60
2022-11-30T11:15:26.276Z,8.70
2022-11-30T11:17:55.648Z,8.70
2022-11-30T11:20:34.092Z,8.70
2022-11-30T11:23:04.788Z,8.70
2022-11-30T11:25:35.701Z,8.70
2022-11-30T11:28:09.618Z,8.70
2022-11-30T11:30:38.505Z,8.70
2022-11-30T11:33:21.334Z,8.70
2022-11-30T11:35:51.431Z,8.80
2022-11-30T11:38:27.272Z,8.80
2022-11-30T11:40:57.844Z,8.80
2022-11-30T11:43:29.096Z,8.90
2022-11-30T11:45:58.865Z,9.00
2022-11-30T11:48:31.933Z,9.00
2022-11-30T11:51:08.913Z,9.10
2022-11-30T11:53:51.725Z,9.10
2022-11-30T11:56:26.115Z,9.10
2022-11-30T11:59:00.775Z,9.10
2022-11-30T12:01:47.380Z,9.10
2022-11-30T12:04:44.002Z,9.20
2022-11-30T12:07:23.748Z,9.30
2022-11-30T12:10:21.920Z,9.40
2022-11-30T12:12:55.312Z,9.40
2022-11-30T12:15:29.447Z,9.40
2022-11-30T12:18:06.650Z,9.40
2022-11-30T12:20:49.848Z,9.40
2022-11-30T12:23:39.463Z,9.30
2022-11-30T12:26:19.696Z,9.30
2022-11-30T12:29:04.598Z,9.30
2022-11-30T12:31:43.334Z,9.30
2022-11-30T12:34:18.964Z,9.30
2022-11-30T12:36:56.075Z,9.30
2022-11-30T12:39:31.837Z,9.30
2022-11-30T12:42:05.987Z,9.30
2022-11-30T12:44:47.634Z,9.20
2022-11-30T12:47:36.292Z,9.20
2022-11-30T12:50:21.871Z,9.20
2022-11-30T12:52:55.959Z,9.10
2022-11-30T12:55:34.016Z,9.10
2022-11-30T12:58:13.076Z,9.10
2022-11-30T13:00:51.173Z,9.10
2022-11-30T13:03:42.692Z,9.20
2022-11-30T13:06:15.630Z,9.10
2022-11-30T13:08:53.214Z,9.10
2022-11-30T13:11:25.202Z,9.10
2022-11-30T13:13:58.305Z,9.10
2022-11-30T13:16:27.461Z,9.10
2022-11-30T13:19:00.079Z,9.10
2022-11-30T13:21:32.064Z,9.10
2022-11-30T13:24:06.877Z,9.00
2022-11-30T13:26:41.650Z,9.00
2022-11-30T13:29:47.237Z,9.10
2022-11-30T13:32:55.393Z,9.10
2022-11-30T13:35:43.089Z,9.10
2022-11-30T13:38:36.976Z,9.00
2022-11-30T13:41:08.362Z,9.00
2022-11-30T13:43:38.574Z,9.00
2022-11-30T13:46:16.652Z,8.90
2022-11-30T13:48:45.841Z,8.90
2022-11-30T13:51:34.430Z,8.80
2022-11-30T13:54:35.837Z,8.80
2022-11-30T13:57:04.095Z,8.80
2022-11-30T13:59:41.282Z,8.80
2022-11-30T14:02:59.303Z,8.80
2022-11-30T14:05:44.158Z,8.70
2022-11-30T14:08:36.196Z,8.70
2022-11-30T14:11:37.636Z,8.70
2022-11-30T14:14:46.523Z,8.70
2022-11-30T14:17:20.497Z,8.60
2022-11-30T14:19:51.838Z,8.60
2022-11-30T14:22:22.254Z,8.60
2022-11-30T14:24:51.280Z,8.60
2022-11-30T14:27:22.268Z,8.70
2022-11-30T14:29:55.900Z,8.60
2022-11-30T14:32:36.265Z,8.60
2022-11-30T14:35:10.770Z,8.70
2022-11-30T14:37:45.012Z,8.60
2022-11-30T14:40:19.366Z,8.60
2022-11-30T14:42:50.288Z,8.60
2022-11-30T14:45:26.490Z,8.60
2022-11-30T14:48:05.723Z,8.60
2022-11-30T14:50:34.215Z,8.60
2022-11-30T14:53:19.061Z,8.60
2022-11-30T14:55:52.280Z,8.50
2022-11-30T14:58:30.770Z,8.50
2022-11-30T15:00:59.421Z,8.50
2022-11-30T15:03:29.584Z,8.50
2022-11-30T15:06:00.127Z,8.50
2022-11-30T15:08:34.979Z,8.40
2022-11-30T15:11:06.448Z,8.40
2022-11-30T15:13:35.593Z,8.40
2022-11-30T15:16:18.393Z,8.40
2022-11-30T15:18:46.641Z,8.40
2022-11-30T15:21:18.841Z,8.40
2022-11-30T15:23:51.420Z,8.40
2022-11-30T15:26:23.855Z,8.30
2022-11-30T15:28:57.845Z,8.30
2022-11-30T15:31:27.967Z,8.30
2022-11-30T15:33:56.060Z,8.30
2022-11-30T15:36:32.864Z,8.30
2022-11-30T15:39:04.851Z,8.30
2022-11-30T15:41:34.664Z,8.20
2022-11-30T15:44:03.135Z,8.20
2022-11-30T15:46:34.232Z,8.20
2022-11-30T15:49:08.118Z,8.20
2022-11-30T15:51:39.932Z,8.30
2022-11-30T15:54:09.504Z,8.20
2022-11-30T15:56:37.981Z,8.20
2022-11-30T15:59:08.566Z,8.20
2022-11-30T16:02:01.751Z,8.20
2022-11-30T16:04:50.684Z,8.20
2022-11-30T16:07:22.570Z,8.20
2022-11-30T16:09:54.250Z,8.10
2022-11-30T16:12:30.005Z,8.10
2022-11-30T16:14:58.481Z,8.20
2022-11-30T16:17:27.870Z,8.20
2022-11-30T16:19:56.034Z,8.10
2022-11-30T16:22:25.439Z,8.20
2022-11-30T16:24:53.409Z,8.20
2022-11-30T16:27:22.607Z,8.20
2022-11-30T16:29:52.849Z,8.10
2022-11-30T16:32:21.597Z,8.10
2022-11-30T16:34:49.675Z,8.10
2022-11-30T16:37:17.749Z,8.10
2022-11-30T16:39:47.408Z,8.20
2022-11-30T16:42:15.511Z,8.10
2022-11-30T16:44:43.708Z,8.10
2022-11-30T16:47:11.749Z,8.10
2022-11-30T16:49:40.170Z,8.10
2022-11-30T16:52:10.575Z,8.10
2022-11-30T16:54:38.639Z,8.10
2022-11-30T16:57:08.583Z,8.10
2022-11-30T16:59:36.503Z,8.10
2022-11-30T17:02:05.089Z,8.10
2022-11-30T17:04:33.063Z,8.10
2022-11-30T17:07:02.973Z,8.10
2022-11-30T17:09:34.358Z,8.10
2022-11-30T17:12:04.216Z,8.10
2022-11-30T17:14:33.677Z,8.10
2022-11-30T17:17:02.038Z,8.10
2022-11-30T17:19:30.218Z,8.10
2022-11-30T17:21:58.243Z,8.00
2022-11-30T17:24:26.223Z,8.10
2022-11-30T17:26:54.229Z,8.10
2022-11-30T17:29:22.260Z,8.10
2022-11-30T17:31:51.625Z,8.10
2022-11-30T17:34:19.560Z,8.00
2022-11-30T17:36:50.713Z,8.00
2022-11-30T17:39:19.403Z,8.00
2022-11-30T17:41:47.319Z,8.00
2022-11-30T17:44:20.243Z,8.00
2022-11-30T17:46:50.809Z,8.00
2022-11-30T17:49:20.626Z,8.00
2022-11-30T17:51:48.735Z,8.00
2022-11-30T17:54:18.005Z,8.00
2022-11-30T17:56:46.425Z,8.00
2022-11-30T17:59:14.448Z,8.00
2022-11-30T18:01:42.793Z,8.00
2022-11-30T18:04:11.022Z,8.00
2022-11-30T18:06:40.784Z,8.00
2022-11-30T18:09:09.223Z,8.00
2022-11-30T18:11:37.220Z,8.10
2022-11-30T18:14:05.157Z,8.00
2022-11-30T18:16:37.054Z,8.00
2022-11-30T18:19:11.826Z,8.10
2022-11-30T18:21:43.762Z,8.20
2022-11-30T18:24:13.018Z,8.10
2022-11-30T18:26:41.418Z,8.10
2022-11-30T18:29:10.892Z,8.00
2022-11-30T18:31:38.937Z,8.00
2022-11-30T18:34:08.561Z,8.00
2022-11-30T18:36:36.769Z,8.00
2022-11-30T18:39:06.393Z,8.00
2022-11-30T18:41:34.358Z,8.00
2022-11-30T18:44:02.476Z,8.10
2022-11-30T18:46:31.634Z,8.00
2022-11-30T18:49:01.105Z,8.10
2022-11-30T18:51:30.911Z,8.00
2022-11-30T18:54:00.516Z,8.00
2022-11-30T18:56:32.219Z,7.90
2022-11-30T18:59:02.655Z,7.90
2022-11-30T19:01:32.037Z,8.00
2022-11-30T19:04:02.410Z,7.90
2022-11-30T19:06:32.658Z,7.90
2022-11-30T19:09:03.217Z,7.90
2022-11-30T19:11:33.608Z,7.90
2022-11-30T19:14:02.432Z,7.90
2022-11-30T19:16:31.562Z,7.90
2022-11-30T19:19:01.596Z,7.90
2022-11-30T19:21:29.998Z,7.90
2022-11-30T19:23:58.979Z,7.90
2022-11-30T19:26:28.629Z,7.90
2022-11-30T19:28:58.940Z,7.90
2022-11-30T19:31:27.552Z,7.80
2022-11-30T19:33:57.265Z,7.80
2022-11-30T19:36:26.612Z,7.80
2022-11-30T19:38:55.048Z,7.80
2022-11-30T19:41:23.445Z,7.80
2022-11-30T19:44:02.746Z,7.70
2022-11-30T19:46:33.047Z,7.80
2022-11-30T19:49:02.249Z,7.70
2022-11-30T19:51:31.741Z,7.70
2022-11-30T19:54:00.281Z,7.70
2022-11-30T19:56:31.050Z,7.70
2022-11-30T19:59:05.272Z,7.70
2022-11-30T20:01:35.383Z,7.60
2022-11-30T20:04:04.180Z,7.60
2022-11-30T20:06:34.799Z,7.60
2022-11-30T20:09:03.501Z,7.60
2022-11-30T20:11:34.013Z,7.60
2022-11-30T20:14:03.741Z,7.60
2022-11-30T20:16:31.889Z,7.60
2022-11-30T20:19:01.816Z,7.60
2022-11-30T20:21:31.891Z,7.60
2022-11-30T20:24:02.000Z,7.60
2022-11-30T20:26:32.358Z,7.60
2022-11-30T20:29:02.467Z,7.50
2022-11-30T20:31:34.264Z,7.70
2022-11-30T20:34:02.380Z,7.70
2022-11-30T20:36:30.460Z,7.80
2022-11-30T20:38:59.442Z,7.80
2022-11-30T20:41:28.052Z,7.70
2022-11-30T20:43:57.164Z,7.70
2022-11-30T20:46:27.184Z,7.60
2022-11-30T20:48:57.223Z,7.60
2022-11-30T20:51:31.729Z,7.60
2022-11-30T20:54:01.055Z,7.50
2022-11-30T20:56:29.167Z,7.50
2022-11-30T20:58:57.084Z,7.50
2022-11-30T21:01:25.135Z,7.50
2022-11-30T21:03:53.239Z,7.50
2022-11-30T21:06:23.049Z,7.50
2022-11-30T21:08:50.966Z,7.40
2022-11-30T21:11:21.045Z,7.40
2022-11-30T21:13:50.568Z,7.30
2022-11-30T21:16:26.915Z,7.30
2022-11-30T21:18:56.544Z,7.30
2022-11-30T21:21:28.087Z,7.30
2022-11-30T21:23:56.113Z,7.20
2022-11-30T21:26:25.693Z,7.30
2022-11-30T21:28:59.380Z,7.20
2022-11-30T21:31:27.550Z,7.30
2022-11-30T21:33:58.554Z,7.20
2022-11-30T21:36:28.479Z,7.30
2022-11-30T21:39:04.447Z,7.30
2022-11-30T21:41:36.476Z,7.40
2022-11-30T21:44:05.014Z,7.30
2022-11-30T21:46:33.501Z,7.30
2022-11-30T21:49:01.802Z,7.30
2022-11-30T21:51:32.644Z,7.30
2022-11-30T21:54:02.006Z,7.30
2022-11-30T21:56:31.643Z,7.40
2022-11-30T21:59:00.483Z,7.40
2022-11-30T22:01:30.734Z,7.30
2022-11-30T22:04:00.681Z,7.20
2022-11-30T22:06:31.583Z,7.20
2022-11-30T22:09:03.095Z,7.30
2022-11-30T22:11:32.041Z,7.20
2022-11-30T22:13:59.968Z,7.20
2022-11-30T22:16:34.161Z,7.20
2022-11-30T22:19:04.579Z,7.20
2022-11-30T22:21:34.593Z,7.10
2022-11-30T22:24:04.322Z,7.10
2022-11-30T22:26:33.798Z,7.10
2022-11-30T22:29:03.820Z,7.10
2022-11-30T22:31:33.875Z,7.10
2022-11-30T22:34:02.135Z,7.10
2022-11-30T22:36:31.501Z,7.10
2022-11-30T22:39:02.636Z,7.10
2022-11-30T22:41:31.052Z,7.10
2022-11-30T22:43:59.824Z,7.20
2022-11-30T22:46:29.309Z,7.20
2022-11-30T22:49:00.062Z,7.20
2022-11-30T22:51:30.234Z,7.30
2022-11-30T22:54:01.020Z,7.40
2022-11-30T22:56:30.817Z,7.30
2022-11-30T22:59:00.847Z,7.30
2022-11-30T23:01:31.789Z,7.20
2022-11-30T23:04:03.666Z,7.00
2022-11-30T23:06:31.718Z,6.90
2022-11-30T23:09:01.381Z,6.80
2022-11-30T23:11:30.854Z,6.80
2022-11-30T23:13:58.955Z,6.70
2022-11-30T23:16:27.037Z,6.70
2022-11-30T23:18:57.199Z,6.70
2022-11-30T23:21:26.898Z,6.60
2022-11-30T23:23:57.263Z,6.60
2022-11-30T23:26:28.512Z,6.60
2022-11-30T23:29:00.706Z,6.50
2022-11-30T23:31:33.613Z,6.50
2022-11-30T23:34:04.777Z,6.50
2022-11-30T23:36:33.762Z,6.50
2022-11-30T23:39:03.825Z,6.50
2022-11-30T23:41:33.574Z,6.40
2022-11-30T23:44:01.816Z,6.40
2022-11-30T23:46:30.323Z,6.40
2022-11-30T23:48:58.406Z,6.40
2022-11-30T23:51:27.501Z,6.40
2022-11-30T23:53:55.547Z,6.40
2022-11-30T23:56:25.543Z,6.40
2022-11-30T23:58:54.908Z,6.40
